sensor_id;sensor_type;location;lat;lon;timestamp;pressure;altitude;pressure_sealevel;temperature;humidity
13836;BME280;6988;52.614;13.500;2023-04-27T00:01:05;54565.72;;;-143.77;65.29
13836;BME280;6988;52.614;13.500;2023-04-27T00:05:57;54592.41;;;-143.77;64.92
13836;BME280;6988;52.614;13.500;2023-04-27T00:10:48;54578.03;;;-143.77;64.57
13836;BME280;6988;52.614;13.500;2023-04-27T00:15:40;54588.31;;;-143.77;64.71
13836;BME280;6988;52.614;13.500;2023-04-27T00:20:33;54590.34;;;-143.77;65.66
13836;BME280;6988;52.614;13.500;2023-04-27T00:25:25;54621.13;;;-143.77;65.74
13836;BME280;6988;52.614;13.500;2023-04-27T00:30:17;54532.91;;;-143.77;65.85
13836;BME280;6988;52.614;13.500;2023-04-27T00:35:10;54614.97;;;-143.77;65.93
13836;BME280;6988;52.614;13.500;2023-04-27T00:40:06;54592.41;;;-143.77;65.90
13836;BME280;6988;52.614;13.500;2023-04-27T00:44:58;54623.19;;;-143.77;66.23
13836;BME280;6988;52.614;13.500;2023-04-27T00:49:50;54604.72;;;-143.77;65.61
13836;BME280;6988;52.614;13.500;2023-04-27T00:54:42;54582.16;;;-143.77;65.61
13836;BME280;6988;52.614;13.500;2023-04-27T00:59:36;54596.50;;;-143.77;65.63
13836;BME280;6988;52.614;13.500;2023-04-27T01:04:29;54614.97;;;-143.77;65.83
13836;BME280;6988;52.614;13.500;2023-04-27T01:09:21;54610.88;;;-143.77;65.58
13836;BME280;6988;52.614;13.500;2023-04-27T01:14:14;54578.03;;;-143.77;65.94
13836;BME280;6988;52.614;13.500;2023-04-27T01:19:08;54594.47;;;-143.77;66.30
13836;BME280;6988;52.614;13.500;2023-04-27T01:24:04;54604.72;;;-143.77;66.14
13836;BME280;6988;52.614;13.500;2023-04-27T01:28:56;54561.63;;;-143.77;66.12
13836;BME280;6988;52.614;13.500;2023-04-27T01:33:51;54596.50;;;-143.77;65.66
13836;BME280;6988;52.614;13.500;2023-04-27T01:38:43;54592.41;;;-143.77;65.80
13836;BME280;6988;52.614;13.500;2023-04-27T01:43:38;54617.03;;;-143.77;66.03
13836;BME280;6988;52.614;13.500;2023-04-27T01:48:31;54604.72;;;-143.77;65.27
13836;BME280;6988;52.614;13.500;2023-04-27T01:53:23;54578.03;;;-143.77;65.82
13836;BME280;6988;52.614;13.500;2023-04-27T01:58:15;54592.41;;;-143.77;65.60
13836;BME280;6988;52.614;13.500;2023-04-27T02:03:08;54606.78;;;-143.77;65.72
13836;BME280;6988;52.614;13.500;2023-04-27T02:08:00;54604.72;;;-143.77;65.89
13836;BME280;6988;52.614;13.500;2023-04-27T02:12:52;54582.16;;;-143.77;65.73
13836;BME280;6988;52.614;13.500;2023-04-27T02:17:44;54594.47;;;-143.77;65.60
13836;BME280;6988;52.614;13.500;2023-04-27T02:22:41;54563.69;;;-143.77;65.96
13836;BME280;6988;52.614;13.500;2023-04-27T02:27:36;54598.56;;;-143.77;66.23
13836;BME280;6988;52.614;13.500;2023-04-27T02:32:28;54590.34;;;-143.77;66.03
13836;BME280;6988;52.614;13.500;2023-04-27T02:37:20;54590.34;;;-143.77;66.12
13836;BME280;6988;52.614;13.500;2023-04-27T02:42:13;54619.09;;;-143.77;66.21
13836;BME280;6988;52.614;13.500;2023-04-27T02:47:06;54569.84;;;-143.77;66.45
13836;BME280;6988;52.614;13.500;2023-04-27T02:51:58;54592.41;;;-143.77;66.41
13836;BME280;6988;52.614;13.500;2023-04-27T02:56:50;54619.09;;;-143.77;66.19
13836;BME280;6988;52.614;13.500;2023-04-27T03:01:43;54610.88;;;-143.77;66.32
13836;BME280;6988;52.614;13.500;2023-04-27T03:06:35;54619.09;;;-143.77;66.56
13836;BME280;6988;52.614;13.500;2023-04-27T03:11:27;54569.84;;;-143.77;66.62
13836;BME280;6988;52.614;13.500;2023-04-27T03:16:19;54621.13;;;-143.77;67.03
13836;BME280;6988;52.614;13.500;2023-04-27T03:21:12;54649.88;;;-143.77;67.14
13836;BME280;6988;52.614;13.500;2023-04-27T03:26:07;54619.09;;;-143.77;66.85
13836;BME280;6988;52.614;13.500;2023-04-27T03:30:59;54639.59;;;-143.77;67.07
13836;BME280;6988;52.614;13.500;2023-04-27T03:35:55;54586.25;;;-143.77;67.01
13836;BME280;6988;52.614;13.500;2023-04-27T03:40:48;54590.34;;;-143.77;67.12
13836;BME280;6988;52.614;13.500;2023-04-27T03:45:40;54617.03;;;-143.77;66.85
13836;BME280;6988;52.614;13.500;2023-04-27T03:50:32;54594.47;;;-143.77;67.27
13836;BME280;6988;52.614;13.500;2023-04-27T03:55:24;54623.19;;;-143.77;67.07
13836;BME280;6988;52.614;13.500;2023-04-27T04:00:18;54602.66;;;-143.77;67.16
13836;BME280;6988;52.614;13.500;2023-04-27T04:05:11;54602.66;;;-143.77;67.12
13836;BME280;6988;52.614;13.500;2023-04-27T04:10:05;54621.13;;;-143.77;66.78
13836;BME280;6988;52.614;13.500;2023-04-27T04:14:58;54602.66;;;-143.77;66.66
13836;BME280;6988;52.614;13.500;2023-04-27T04:19:52;54576.00;;;-143.77;67.18
13836;BME280;6988;52.614;13.500;2023-04-27T04:24:44;54580.09;;;-143.77;66.18
13836;BME280;6988;52.614;13.500;2023-04-27T04:29:35;54614.97;;;-143.77;66.54
13836;BME280;6988;52.614;13.500;2023-04-27T04:34:28;54608.81;;;-143.77;66.41
13836;BME280;6988;52.614;13.500;2023-04-27T04:39:23;54567.78;;;-143.77;66.47
13836;BME280;6988;52.614;13.500;2023-04-27T04:44:16;54571.88;;;-143.77;66.69
13836;BME280;6988;52.614;13.500;2023-04-27T04:49:08;54569.84;;;-143.77;66.35
13836;BME280;6988;52.614;13.500;2023-04-27T04:54:01;54571.88;;;-143.77;65.86
13836;BME280;6988;52.614;13.500;2023-04-27T04:58:54;54576.00;;;-143.77;65.73
13836;BME280;6988;52.614;13.500;2023-04-27T05:03:46;54565.72;;;-143.77;65.43
13836;BME280;6988;52.614;13.500;2023-04-27T05:08:37;54541.09;;;-143.77;65.01
13836;BME280;6988;52.614;13.500;2023-04-27T05:13:30;54578.03;;;-143.77;64.94
13836;BME280;6988;52.614;13.500;2023-04-27T05:18:23;54576.00;;;-143.77;65.42
13836;BME280;6988;52.614;13.500;2023-04-27T05:23:15;54561.63;;;-143.77;64.20
13836;BME280;6988;52.614;13.500;2023-04-27T05:28:07;54563.69;;;-143.77;64.74
13836;BME280;6988;52.614;13.500;2023-04-27T05:32:59;54512.38;;;-143.77;64.12
13836;BME280;6988;52.614;13.500;2023-04-27T05:37:53;54526.75;;;-143.77;63.61
13836;BME280;6988;52.614;13.500;2023-04-27T05:42:45;54561.63;;;-143.77;63.85
13836;BME280;6988;52.614;13.500;2023-04-27T05:47:37;54534.94;;;-143.77;63.82
13836;BME280;6988;52.614;13.500;2023-04-27T05:52:29;54532.91;;;-143.77;64.00
13836;BME280;6988;52.614;13.500;2023-04-27T05:57:22;54463.13;;;-143.77;64.29
13836;BME280;6988;52.614;13.500;2023-04-27T06:02:14;54467.25;;;-143.77;63.31
13836;BME280;6988;52.614;13.500;2023-04-27T06:07:07;54473.41;;;-143.77;62.34
13836;BME280;6988;52.614;13.500;2023-04-27T06:11:59;54483.66;;;-143.77;62.02
13836;BME280;6988;52.614;13.500;2023-04-27T06:16:53;54491.88;;;-143.77;61.24
13836;BME280;6988;52.614;13.500;2023-04-27T06:21:45;54477.50;;;-143.77;60.75
13836;BME280;6988;52.614;13.500;2023-04-27T06:26:37;54469.28;;;-143.77;60.75
13836;BME280;6988;52.614;13.500;2023-04-27T06:31:29;54467.25;;;-143.77;59.63
13836;BME280;6988;52.614;13.500;2023-04-27T06:36:24;54450.81;;;-143.77;58.30
13836;BME280;6988;52.614;13.500;2023-04-27T06:41:16;54340.03;;;-143.77;59.11
13836;BME280;6988;52.614;13.500;2023-04-27T06:46:08;54432.34;;;-143.77;58.08
13836;BME280;6988;52.614;13.500;2023-04-27T06:50:59;54452.88;;;-143.77;56.06
13836;BME280;6988;52.614;13.500;2023-04-27T06:55:52;54438.50;;;-143.77;56.11
13836;BME280;6988;52.614;13.500;2023-04-27T07:00:44;54418.00;;;-143.77;56.04
13836;BME280;6988;52.614;13.500;2023-04-27T07:05:36;54311.28;;;-143.77;56.46
13836;BME280;6988;52.614;13.500;2023-04-27T07:10:28;54282.56;;;-143.77;54.06
13836;BME280;6988;52.614;13.500;2023-04-27T07:15:21;54251.78;;;-143.77;53.34
13836;BME280;6988;52.614;13.500;2023-04-27T07:20:13;54237.44;;;-143.77;50.79
13836;BME280;6988;52.614;13.500;2023-04-27T07:25:08;54190.25;;;-143.77;48.25
13836;BME280;6988;52.614;13.500;2023-04-27T07:29:59;54145.09;;;-143.77;46.75
13836;BME280;6988;52.614;13.500;2023-04-27T07:34:54;54161.50;;;-143.77;48.25
13836;BME280;6988;52.614;13.500;2023-04-27T07:39:48;54118.44;;;-143.77;46.65
13836;BME280;6988;52.614;13.500;2023-04-27T07:44:41;54089.72;;;-143.77;45.63
13836;BME280;6988;52.614;13.500;2023-04-27T07:49:33;54294.88;;;-143.77;44.77
13836;BME280;6988;52.614;13.500;2023-04-27T07:54:26;54188.19;;;-143.77;45.37
13836;BME280;6988;52.614;13.500;2023-04-27T07:59:18;54264.09;;;-143.77;46.05
13836;BME280;6988;52.614;13.500;2023-04-27T08:04:10;54274.38;;;-143.77;46.15
13836;BME280;6988;52.614;13.500;2023-04-27T08:09:03;54272.31;;;-143.77;45.57
13836;BME280;6988;52.614;13.500;2023-04-27T08:13:56;54099.97;;;-143.77;44.91
13836;BME280;6988;52.614;13.500;2023-04-27T08:18:48;54067.13;;;-143.77;45.88
13836;BME280;6988;52.614;13.500;2023-04-27T08:23:40;54216.91;;;-143.77;42.96
13836;BME280;6988;52.614;13.500;2023-04-27T08:28:33;54262.06;;;-143.77;43.91
13836;BME280;6988;52.614;13.500;2023-04-27T08:33:26;54319.50;;;-143.77;42.99
13836;BME280;6988;52.614;13.500;2023-04-27T08:38:18;54323.59;;;-143.77;45.29
13836;BME280;6988;52.614;13.500;2023-04-27T08:43:10;54335.91;;;-143.77;45.10
13836;BME280;6988;52.614;13.500;2023-04-27T08:48:02;54372.84;;;-143.77;46.61
13836;BME280;6988;52.614;13.500;2023-04-27T08:52:55;54370.81;;;-143.77;47.51
13836;BME280;6988;52.614;13.500;2023-04-27T08:57:54;54413.88;;;-143.77;47.65
13836;BME280;6988;52.614;13.500;2023-04-27T09:02:47;54383.13;;;-143.77;46.31
13836;BME280;6988;52.614;13.500;2023-04-27T09:07:39;54391.31;;;-143.77;46.25
13836;BME280;6988;52.614;13.500;2023-04-27T09:12:32;54141.00;;;-143.77;45.38
13836;BME280;6988;52.614;13.500;2023-04-27T09:17:25;54296.94;;;-143.77;43.86
13836;BME280;6988;52.614;13.500;2023-04-27T09:22:17;54303.09;;;-143.77;43.57
13836;BME280;6988;52.614;13.500;2023-04-27T09:27:18;54350.28;;;-143.77;44.47
13836;BME280;6988;52.614;13.500;2023-04-27T09:32:16;54333.88;;;-143.77;46.55
13836;BME280;6988;52.614;13.500;2023-04-27T09:37:10;54327.72;;;-143.77;45.05
13836;BME280;6988;52.614;13.500;2023-04-27T09:42:04;54056.88;;;-143.77;44.15
13836;BME280;6988;52.614;13.500;2023-04-27T09:46:58;54260.00;;;-143.77;40.75
13836;BME280;6988;52.614;13.500;2023-04-27T09:51:51;54284.63;;;-143.77;40.83
13836;BME280;6988;52.614;13.500;2023-04-27T09:57:07;54270.25;;;-143.77;42.46
13836;BME280;6988;52.614;13.500;2023-04-27T10:02:04;54212.81;;;-143.77;43.38
13836;BME280;6988;52.614;13.500;2023-04-27T10:07:00;54303.09;;;-143.77;43.16
13836;BME280;6988;52.614;13.500;2023-04-27T10:11:54;54260.00;;;-143.77;43.73
13836;BME280;6988;52.614;13.500;2023-04-27T10:16:49;54301.03;;;-143.77;42.65
13836;BME280;6988;52.614;13.500;2023-04-27T10:21:56;54274.38;;;-143.77;43.87
13836;BME280;6988;52.614;13.500;2023-04-27T10:26:51;54272.31;;;-143.77;42.96
13836;BME280;6988;52.614;13.500;2023-04-27T10:31:43;54126.63;;;-143.77;40.66
13836;BME280;6988;52.614;13.500;2023-04-27T10:36:38;54065.09;;;-143.77;39.68
13836;BME280;6988;52.614;13.500;2023-04-27T10:41:34;53948.13;;;-143.77;39.86
13836;BME280;6988;52.614;13.500;2023-04-27T10:46:27;54149.22;;;-143.77;37.85
13836;BME280;6988;52.614;13.500;2023-04-27T10:51:19;54147.16;;;-143.77;38.85
13836;BME280;6988;52.614;13.500;2023-04-27T10:56:10;54175.88;;;-143.77;39.47
13836;BME280;6988;52.614;13.500;2023-04-27T11:01:02;54208.72;;;-143.77;39.56
13836;BME280;6988;52.614;13.500;2023-04-27T11:06:01;54249.75;;;-143.77;39.51
13836;BME280;6988;52.614;13.500;2023-04-27T11:10:53;54257.94;;;-143.77;40.64
13836;BME280;6988;52.614;13.500;2023-04-27T11:15:48;54218.97;;;-143.77;40.86
13836;BME280;6988;52.614;13.500;2023-04-27T11:20:40;54175.88;;;-143.77;40.36
13836;BME280;6988;52.614;13.500;2023-04-27T11:25:34;54179.97;;;-143.77;40.08
13836;BME280;6988;52.614;13.500;2023-04-27T11:30:26;54052.78;;;-143.77;40.00
13836;BME280;6988;52.614;13.500;2023-04-27T11:35:18;54114.31;;;-143.77;38.58
13836;BME280;6988;52.614;13.500;2023-04-27T11:40:12;54221.03;;;-143.77;39.45
13836;BME280;6988;52.614;13.500;2023-04-27T11:45:10;54245.63;;;-143.77;39.37
13836;BME280;6988;52.614;13.500;2023-04-27T11:50:05;54241.53;;;-143.77;40.19
13836;BME280;6988;52.614;13.500;2023-04-27T11:54:59;54214.88;;;-143.77;40.40
13836;BME280;6988;52.614;13.500;2023-04-27T12:00:00;54188.19;;;-143.77;40.11
13836;BME280;6988;52.614;13.500;2023-04-27T12:05:06;54177.94;;;-143.77;39.72
13836;BME280;6988;52.614;13.500;2023-04-27T12:09:58;54237.44;;;-143.77;39.53
13836;BME280;6988;52.614;13.500;2023-04-27T12:14:50;54204.59;;;-143.77;39.06
13836;BME280;6988;52.614;13.500;2023-04-27T12:19:42;54229.22;;;-143.77;39.95
13836;BME280;6988;52.614;13.500;2023-04-27T12:24:35;54192.28;;;-143.77;40.06
13836;BME280;6988;52.614;13.500;2023-04-27T12:29:27;54229.22;;;-143.77;40.34
13836;BME280;6988;52.614;13.500;2023-04-27T12:34:19;54237.44;;;-143.77;40.57
13836;BME280;6988;52.614;13.500;2023-04-27T12:39:14;54225.13;;;-143.77;39.20
13836;BME280;6988;52.614;13.500;2023-04-27T12:44:08;54190.25;;;-143.77;40.07
13836;BME280;6988;52.614;13.500;2023-04-27T12:48:59;54233.31;;;-143.77;40.43
13836;BME280;6988;52.614;13.500;2023-04-27T12:53:51;54216.91;;;-143.77;40.51
13836;BME280;6988;52.614;13.500;2023-04-27T12:58:43;54268.22;;;-143.77;40.32
13836;BME280;6988;52.614;13.500;2023-04-27T13:03:37;54225.13;;;-143.77;40.75
13836;BME280;6988;52.614;13.500;2023-04-27T13:08:28;54216.91;;;-143.77;39.97
13836;BME280;6988;52.614;13.500;2023-04-27T13:13:20;54231.28;;;-143.77;40.89
13836;BME280;6988;52.614;13.500;2023-04-27T13:18:12;54216.91;;;-143.77;39.79
13836;BME280;6988;52.614;13.500;2023-04-27T13:23:05;54194.34;;;-143.77;38.82
13836;BME280;6988;52.614;13.500;2023-04-27T13:27:57;54192.28;;;-143.77;38.88
13836;BME280;6988;52.614;13.500;2023-04-27T13:32:49;54173.81;;;-143.77;38.28
13836;BME280;6988;52.614;13.500;2023-04-27T13:37:41;54184.09;;;-143.77;36.97
13836;BME280;6988;52.614;13.500;2023-04-27T13:42:35;54221.03;;;-143.77;37.29
13836;BME280;6988;52.614;13.500;2023-04-27T13:47:27;53966.59;;;-143.77;38.33
13836;BME280;6988;52.614;13.500;2023-04-27T13:52:25;54124.59;;;-143.77;36.50
13836;BME280;6988;52.614;13.500;2023-04-27T13:57:17;54141.00;;;-143.77;35.85
13836;BME280;6988;52.614;13.500;2023-04-27T14:02:10;54163.56;;;-143.77;36.27
13836;BME280;6988;52.614;13.500;2023-04-27T14:07:02;54147.16;;;-143.77;37.57
13836;BME280;6988;52.614;13.500;2023-04-27T14:11:54;54102.00;;;-143.77;35.51
13836;BME280;6988;52.614;13.500;2023-04-27T14:16:47;54157.41;;;-143.77;36.66
13836;BME280;6988;52.614;13.500;2023-04-27T14:21:41;54071.25;;;-143.77;36.82
13836;BME280;6988;52.614;13.500;2023-04-27T14:26:33;54019.94;;;-143.77;37.50
13836;BME280;6988;52.614;13.500;2023-04-27T14:31:25;54042.50;;;-143.77;36.27
13836;BME280;6988;52.614;13.500;2023-04-27T14:36:19;54108.16;;;-143.77;36.22
13836;BME280;6988;52.614;13.500;2023-04-27T14:41:12;54147.16;;;-143.77;35.50
13836;BME280;6988;52.614;13.500;2023-04-27T14:46:04;54046.63;;;-143.77;37.91
13836;BME280;6988;52.614;13.500;2023-04-27T14:50:56;54063.03;;;-143.77;35.61
13836;BME280;6988;52.614;13.500;2023-04-27T14:55:48;54015.84;;;-143.77;35.83
13836;BME280;6988;52.614;13.500;2023-04-27T15:00:41;54173.81;;;-143.77;36.50
13836;BME280;6988;52.614;13.500;2023-04-27T15:05:33;54182.03;;;-143.77;36.10
13836;BME280;6988;52.614;13.500;2023-04-27T15:10:24;54225.13;;;-143.77;37.34
13836;BME280;6988;52.614;13.500;2023-04-27T15:15:16;54241.53;;;-143.77;38.51
13836;BME280;6988;52.614;13.500;2023-04-27T15:20:11;54229.22;;;-143.77;39.15
13836;BME280;6988;52.614;13.500;2023-04-27T15:25:04;54249.75;;;-143.77;39.04
13836;BME280;6988;52.614;13.500;2023-04-27T15:29:57;54171.78;;;-143.77;39.03
13836;BME280;6988;52.614;13.500;2023-04-27T15:34:48;54204.59;;;-143.77;39.51
13836;BME280;6988;52.614;13.500;2023-04-27T15:39:42;54206.66;;;-143.77;37.73
13836;BME280;6988;52.614;13.500;2023-04-27T15:44:34;54266.16;;;-143.77;37.28
13836;BME280;6988;52.614;13.500;2023-04-27T15:49:26;54229.22;;;-143.77;39.34
13836;BME280;6988;52.614;13.500;2023-04-27T15:54:17;54233.31;;;-143.77;38.57
13836;BME280;6988;52.614;13.500;2023-04-27T15:59:10;54274.38;;;-143.77;39.63
13836;BME280;6988;52.614;13.500;2023-04-27T16:04:02;54235.38;;;-143.77;39.12
13836;BME280;6988;52.614;13.500;2023-04-27T16:08:54;54179.97;;;-143.77;38.25
13836;BME280;6988;52.614;13.500;2023-04-27T16:13:46;54235.38;;;-143.77;39.51
13836;BME280;6988;52.614;13.500;2023-04-27T16:18:40;54251.78;;;-143.77;39.37
13836;BME280;6988;52.614;13.500;2023-04-27T16:23:32;54241.53;;;-143.77;37.87
13836;BME280;6988;52.614;13.500;2023-04-27T16:28:24;54235.38;;;-143.77;37.67
13836;BME280;6988;52.614;13.500;2023-04-27T16:33:16;54251.78;;;-143.77;38.12
13836;BME280;6988;52.614;13.500;2023-04-27T16:38:12;54260.00;;;-143.77;38.23
13836;BME280;6988;52.614;13.500;2023-04-27T16:43:04;54218.97;;;-143.77;38.28
13836;BME280;6988;52.614;13.500;2023-04-27T16:47:56;54262.06;;;-143.77;38.70
13836;BME280;6988;52.614;13.500;2023-04-27T16:52:50;54229.22;;;-143.77;37.94
13836;BME280;6988;52.614;13.500;2023-04-27T16:57:43;54264.09;;;-143.77;38.53
13836;BME280;6988;52.614;13.500;2023-04-27T17:07:36;54303.09;;;-143.77;37.73
13836;BME280;6988;52.614;13.500;2023-04-27T17:12:28;54286.69;;;-143.77;38.35
13836;BME280;6988;52.614;13.500;2023-04-27T17:17:22;54280.53;;;-143.77;38.75
13836;BME280;6988;52.614;13.500;2023-04-27T17:22:13;54290.78;;;-143.77;39.02
13836;BME280;6988;52.614;13.500;2023-04-27T17:27:06;54317.44;;;-143.77;38.69
13836;BME280;6988;52.614;13.500;2023-04-27T17:31:57;54315.41;;;-143.77;39.25
13836;BME280;6988;52.614;13.500;2023-04-27T17:36:51;54315.41;;;-143.77;39.51
13836;BME280;6988;52.614;13.500;2023-04-27T17:41:44;54311.28;;;-143.77;39.73
13836;BME280;6988;52.614;13.500;2023-04-27T17:46:36;54335.91;;;-143.77;39.10
13836;BME280;6988;52.614;13.500;2023-04-27T17:51:28;54333.88;;;-143.77;39.97
13836;BME280;6988;52.614;13.500;2023-04-27T17:56:21;54374.91;;;-143.77;39.79
13836;BME280;6988;52.614;13.500;2023-04-27T18:01:13;54346.19;;;-143.77;41.09
13836;BME280;6988;52.614;13.500;2023-04-27T18:06:06;54346.19;;;-143.77;41.49
13836;BME280;6988;52.614;13.500;2023-04-27T18:10:58;54370.81;;;-143.77;41.26
13836;BME280;6988;52.614;13.500;2023-04-27T18:15:51;54383.13;;;-143.77;42.82
13836;BME280;6988;52.614;13.500;2023-04-27T18:20:44;54405.69;;;-143.77;43.25
13836;BME280;6988;52.614;13.500;2023-04-27T18:25:37;54401.56;;;-143.77;44.32
13836;BME280;6988;52.614;13.500;2023-04-27T18:30:30;54399.53;;;-143.77;44.39
13836;BME280;6988;52.614;13.500;2023-04-27T18:35:23;54430.31;;;-143.77;45.22
13836;BME280;6988;52.614;13.500;2023-04-27T18:40:18;54438.50;;;-143.77;45.61
13836;BME280;6988;52.614;13.500;2023-04-27T18:45:10;54434.41;;;-143.77;46.55
13836;BME280;6988;52.614;13.500;2023-04-27T18:50:02;54475.44;;;-143.77;47.14
13836;BME280;6988;52.614;13.500;2023-04-27T18:54:56;54463.13;;;-143.77;48.07
13836;BME280;6988;52.614;13.500;2023-04-27T18:59:47;54438.50;;;-143.77;48.72
13836;BME280;6988;52.614;13.500;2023-04-27T19:04:40;54426.19;;;-143.77;49.49
13836;BME280;6988;52.614;13.500;2023-04-27T19:09:31;54446.72;;;-143.77;50.55
13836;BME280;6988;52.614;13.500;2023-04-27T19:14:25;54467.25;;;-143.77;50.30
13836;BME280;6988;52.614;13.500;2023-04-27T19:19:17;54459.03;;;-143.77;50.95
13836;BME280;6988;52.614;13.500;2023-04-27T19:24:09;54522.63;;;-143.77;52.28
13836;BME280;6988;52.614;13.500;2023-04-27T19:29:01;54504.19;;;-143.77;52.80
13836;BME280;6988;52.614;13.500;2023-04-27T19:33:54;54508.28;;;-143.77;53.95
13836;BME280;6988;52.614;13.500;2023-04-27T19:38:46;54502.13;;;-143.77;54.86
13836;BME280;6988;52.614;13.500;2023-04-27T19:43:38;54493.91;;;-143.77;54.87
13836;BME280;6988;52.614;13.500;2023-04-27T19:48:30;54495.97;;;-143.77;55.14
13836;BME280;6988;52.614;13.500;2023-04-27T19:53:23;54545.22;;;-143.77;55.03
13836;BME280;6988;52.614;13.500;2023-04-27T19:58:15;54522.63;;;-143.77;56.31
13836;BME280;6988;52.614;13.500;2023-04-27T20:03:07;54534.94;;;-143.77;57.42
13836;BME280;6988;52.614;13.500;2023-04-27T20:07:59;54549.31;;;-143.77;58.53
13836;BME280;6988;52.614;13.500;2023-04-27T20:12:53;54561.63;;;-143.77;58.18
13836;BME280;6988;52.614;13.500;2023-04-27T20:17:45;54528.78;;;-143.77;57.02
13836;BME280;6988;52.614;13.500;2023-04-27T20:22:38;54580.09;;;-143.77;57.36
13836;BME280;6988;52.614;13.500;2023-04-27T20:27:30;54545.22;;;-143.77;57.70
13836;BME280;6988;52.614;13.500;2023-04-27T20:32:23;54553.41;;;-143.77;57.77
13836;BME280;6988;52.614;13.500;2023-04-27T20:37:15;54565.72;;;-143.77;57.97
13836;BME280;6988;52.614;13.500;2023-04-27T20:42:07;54565.72;;;-143.77;58.39
13836;BME280;6988;52.614;13.500;2023-04-27T20:46:59;54586.25;;;-143.77;57.28
13836;BME280;6988;52.614;13.500;2023-04-27T20:51:53;54598.56;;;-143.77;58.59
13836;BME280;6988;52.614;13.500;2023-04-27T20:56:45;54573.94;;;-143.77;59.51
13836;BME280;6988;52.614;13.500;2023-04-27T21:01:37;54573.94;;;-143.77;59.71
13836;BME280;6988;52.614;13.500;2023-04-27T21:06:28;54584.19;;;-143.77;59.98
13836;BME280;6988;52.614;13.500;2023-04-27T21:11:22;54623.19;;;-143.77;60.34
13836;BME280;6988;52.614;13.500;2023-04-27T21:16:14;54598.56;;;-143.77;60.71
13836;BME280;6988;52.614;13.500;2023-04-27T21:21:06;54586.25;;;-143.77;61.01
13836;BME280;6988;52.614;13.500;2023-04-27T21:25:58;54606.78;;;-143.77;61.27
13836;BME280;6988;52.614;13.500;2023-04-27T21:30:51;54629.34;;;-143.77;61.61
13836;BME280;6988;52.614;13.500;2023-04-27T21:35:43;54617.03;;;-143.77;60.98
13836;BME280;6988;52.614;13.500;2023-04-27T21:40:35;54573.94;;;-143.77;61.00
13836;BME280;6988;52.614;13.500;2023-04-27T22:04:06;54662.19;;;-143.77;62.75
13836;BME280;6988;52.614;13.500;2023-04-27T22:08:59;54637.56;;;-143.77;63.38
13836;BME280;6988;52.614;13.500;2023-04-27T22:13:51;54614.97;;;-143.77;63.56
13836;BME280;6988;52.614;13.500;2023-04-27T22:18:43;54631.41;;;-143.77;64.02
13836;BME280;6988;52.614;13.500;2023-04-27T22:23:36;54668.34;;;-143.77;64.18
13836;BME280;6988;52.614;13.500;2023-04-27T22:28:28;54639.59;;;-143.77;63.90
13836;BME280;6988;52.614;13.500;2023-04-27T22:33:20;54606.78;;;-143.77;64.30
13836;BME280;6988;52.614;13.500;2023-04-27T22:38:12;54653.97;;;-143.77;64.34
13836;BME280;6988;52.614;13.500;2023-04-27T22:43:06;54635.50;;;-143.77;64.21
13836;BME280;6988;52.614;13.500;2023-04-27T22:47:58;54651.91;;;-143.77;64.25
13836;BME280;6988;52.614;13.500;2023-04-27T22:52:49;54645.75;;;-143.77;64.34
13836;BME280;6988;52.614;13.500;2023-04-27T22:57:43;54619.09;;;-143.77;64.53
13836;BME280;6988;52.614;13.500;2023-04-27T23:02:36;54635.50;;;-143.77;64.56
13836;BME280;6988;52.614;13.500;2023-04-27T23:07:28;54627.28;;;-143.77;64.96
13836;BME280;6988;52.614;13.500;2023-04-27T23:12:20;54645.75;;;-143.77;65.17
13836;BME280;6988;52.614;13.500;2023-04-27T23:17:12;54631.41;;;-143.77;65.65
13836;BME280;6988;52.614;13.500;2023-04-27T23:22:05;54627.28;;;-143.77;65.77
13836;BME280;6988;52.614;13.500;2023-04-27T23:26:57;54674.50;;;-143.77;66.03
13836;BME280;6988;52.614;13.500;2023-04-27T23:31:49;54656.03;;;-143.77;66.34
13836;BME280;6988;52.614;13.500;2023-04-27T23:36:41;54680.66;;;-143.77;65.79
13836;BME280;6988;52.614;13.500;2023-04-27T23:41:35;54658.06;;;-143.77;65.74
13836;BME280;6988;52.614;13.500;2023-04-27T23:46:27;54658.06;;;-143.77;65.98
13836;BME280;6988;52.614;13.500;2023-04-27T23:51:19;54688.84;;;-143.77;66.75
13836;BME280;6988;52.614;13.500;2023-04-27T23:56:15;54684.75;;;-143.77;66.92
